Time;durP1;ratioP1;P1;durP2;ratioP2;P2;SDS_P1;SDS_P2;PMS_P1;PMS_P2;Temp;Humidity;BMP_temperature;BMP_pressure;BME280_temperature;BME280_humidity;BME280_pressure;Samples;Min_cycle;Max_cycle;Signal;HPM_P1;HPM_P2
2022/07/30 00:01:59;;;;;;;6.20;5.15;;;19.10;99.90;;;;;;5094181;28;20063;-73
2022/07/30 00:04:25;;;;;;;5.75;5.05;;;19.10;99.90;;;;;;5094103;28;20060;-71
2022/07/30 00:06:51;;;;;;;5.65;4.22;;;19.00;99.90;;;;;;5093944;28;20024;-74
2022/07/30 00:09:16;;;;;;;6.57;5.10;;;19.00;99.90;;;;;;5094295;28;20026;-74
2022/07/30 00:11:42;;;;;;;6.53;5.03;;;19.00;99.90;;;;;;5092521;28;20115;-74
2022/07/30 00:14:08;;;;;;;5.47;4.85;;;18.90;99.90;;;;;;5093950;28;20031;-71
2022/07/30 00:16:35;;;;;;;7.43;5.28;;;18.90;99.90;;;;;;5093941;28;20036;-73
2022/07/30 00:19:01;;;;;;;7.47;4.97;;;19.00;99.90;;;;;;5093411;28;20020;-73
2022/07/30 00:21:27;;;;;;;9.18;5.68;;;19.00;99.90;;;;;;5093635;28;20020;-70
2022/07/30 00:23:53;;;;;;;5.47;4.97;;;18.90;99.90;;;;;;5093639;28;20378;-70
2022/07/30 00:26:18;;;;;;;5.65;5.15;;;18.90;99.90;;;;;;5093657;28;20031;-73
2022/07/30 00:28:44;;;;;;;6.20;4.93;;;18.90;99.90;;;;;;5092473;28;20107;-73
2022/07/30 00:31:10;;;;;;;6.28;5.05;;;18.90;99.90;;;;;;5093715;28;20459;-73
2022/07/30 00:33:36;;;;;;;6.72;4.85;;;18.90;99.90;;;;;;5092387;28;20367;-73
2022/07/30 00:36:01;;;;;;;5.65;4.80;;;18.90;99.90;;;;;;5093403;28;20024;-71
2022/07/30 00:38:27;;;;;;;7.47;5.53;;;18.80;99.90;;;;;;5093660;28;20047;-73
2022/07/30 00:40:53;;;;;;;5.43;4.50;;;18.80;99.90;;;;;;5092313;28;20020;-74
2022/07/30 00:43:19;;;;;;;6.65;5.35;;;18.80;99.90;;;;;;5093392;28;20139;-74
2022/07/30 00:45:45;;;;;;;5.53;5.03;;;18.80;99.90;;;;;;5092705;28;20091;-71
2022/07/30 00:48:15;;;;;;;9.77;5.05;;;18.80;99.90;;;;;;5093335;28;20036;-71
2022/07/30 00:50:41;;;;;;;6.55;4.50;;;18.80;99.90;;;;;;5073207;28;20024;-74
2022/07/30 00:53:07;;;;;;;7.22;5.50;;;18.80;99.90;;;;;;5073168;28;20448;-74
2022/07/30 00:55:34;;;;;;;5.57;5.07;;;18.70;99.90;;;;;;5073177;28;20031;-74
2022/07/30 00:58:00;;;;;;;7.45;5.82;;;18.80;99.90;;;;;;5072969;28;20100;-73
2022/07/30 01:00:26;;;;;;;5.32;4.88;;;18.70;99.90;;;;;;5071817;28;20111;-70
2022/07/30 01:02:52;;;;;;;5.25;4.72;;;18.80;99.90;;;;;;5073013;28;20108;-70
2022/07/30 01:05:18;;;;;;;6.32;4.95;;;18.70;99.90;;;;;;5073101;28;20449;-71
2022/07/30 01:07:44;;;;;;;5.75;5.22;;;18.70;99.90;;;;;;5072842;28;20028;-71
2022/07/30 01:10:12;;;;;;;6.13;4.90;;;18.70;99.90;;;;;;5073076;28;20028;-71
2022/07/30 01:12:39;;;;;;;8.15;5.55;;;18.70;99.90;;;;;;5072995;28;20082;-71
2022/07/30 01:15:07;;;;;;;7.90;6.15;;;18.70;99.90;;;;;;5072980;28;20030;-70
2022/07/30 01:17:34;;;;;;;5.95;5.47;;;18.70;99.90;;;;;;5072931;28;20021;-71
2022/07/30 01:20:19;;;;;;;7.55;5.85;;;18.70;99.90;;;;;;5075938;28;20087;-74
2022/07/30 01:23:11;;;;;;;7.97;5.50;;;18.70;99.90;;;;;;5091700;28;20380;-70
2022/07/30 01:25:47;;;;;;;6.57;5.40;;;18.70;99.90;;;;;;5091739;28;20039;-74
2022/07/30 01:28:17;;;;;;;8.25;5.32;;;18.60;99.90;;;;;;5092971;28;20048;-73
2022/07/30 01:30:43;;;;;;;7.07;4.90;;;18.60;99.90;;;;;;5091749;28;20063;-70
2022/07/30 01:33:14;;;;;;;9.07;5.85;;;18.70;99.90;;;;;;5092940;28;20542;-71
2022/07/30 01:35:43;;;;;;;6.30;5.22;;;18.70;99.90;;;;;;5093024;28;20148;-71
2022/07/30 01:38:11;;;;;;;8.93;5.40;;;18.60;99.90;;;;;;5091446;28;20522;-74
2022/07/30 01:40:38;;;;;;;7.43;5.72;;;18.60;99.90;;;;;;5092972;28;20074;-74
2022/07/30 01:43:06;;;;;;;9.57;5.22;;;18.60;99.90;;;;;;5092604;28;20032;-73
2022/07/30 01:45:33;;;;;;;8.23;5.93;;;18.50;99.90;;;;;;5092790;28;20443;-70
2022/07/30 01:48:02;;;;;;;5.88;4.85;;;18.50;99.90;;;;;;5091352;28;20465;-73
2022/07/30 01:50:29;;;;;;;7.32;6.55;;;18.50;99.90;;;;;;5092608;28;20497;-73
2022/07/30 01:52:57;;;;;;;7.28;5.97;;;18.50;99.90;;;;;;5092760;28;20059;-70
2022/07/30 01:55:32;;;;;;;7.70;6.05;;;18.50;99.90;;;;;;5092711;28;20373;-74
2022/07/30 01:58:00;;;;;;;9.20;6.10;;;18.50;99.90;;;;;;5094920;28;20603;-73
2022/07/30 02:00:29;;;;;;;8.25;5.65;;;18.40;99.90;;;;;;5095259;28;20028;-70
2022/07/30 02:02:56;;;;;;;6.97;5.65;;;18.40;99.90;;;;;;5095144;28;20027;-73
2022/07/30 02:05:22;;;;;;;7.75;5.57;;;18.40;99.90;;;;;;5096532;28;20020;-71
2022/07/30 02:08:11;;;;;;;6.15;5.55;;;18.40;99.90;;;;;;5096194;28;20073;-70
2022/07/30 02:11:05;;;;;;;6.40;5.18;;;18.40;99.90;;;;;;5096435;28;20024;-73
2022/07/30 02:13:32;;;;;;;6.55;5.95;;;18.40;99.90;;;;;;5096397;28;20517;-70
2022/07/30 02:16:16;;;;;;;7.38;5.85;;;18.40;99.90;;;;;;5096241;28;20024;-74
2022/07/30 02:18:42;;;;;;;7.30;5.55;;;18.40;99.90;;;;;;5094776;28;20021;-70
2022/07/30 02:21:09;;;;;;;7.28;5.82;;;18.50;99.90;;;;;;5094915;28;20027;-74
2022/07/30 02:23:38;;;;;;;6.60;5.32;;;18.40;99.90;;;;;;5095921;28;20115;-70
2022/07/30 02:26:07;;;;;;;7.15;5.88;;;18.50;99.90;;;;;;5096002;28;20571;-70
2022/07/30 02:28:38;;;;;;;8.52;5.57;;;18.50;99.90;;;;;;5095974;28;20397;-73
2022/07/30 02:31:06;;;;;;;8.27;6.22;;;18.50;99.90;;;;;;5094711;28;20020;-71
2022/07/30 02:33:39;;;;;;;7.57;5.80;;;18.50;99.90;;;;;;5095812;28;20012;-73
2022/07/30 02:36:08;;;;;;;10.60;5.85;;;18.50;99.90;;;;;;5095810;28;20028;-74
2022/07/30 02:38:35;;;;;;;6.47;5.88;;;18.60;99.90;;;;;;5095791;28;20098;-73
2022/07/30 02:41:03;;;;;;;9.13;7.35;;;18.50;99.90;;;;;;5095961;28;20028;-74
2022/07/30 02:43:31;;;;;;;5.95;5.38;;;18.50;99.90;;;;;;5094218;28;20040;-74
2022/07/30 02:45:57;;;;;;;7.47;5.90;;;18.50;99.90;;;;;;5095639;28;20057;-73
2022/07/30 02:48:26;;;;;;;6.63;5.97;;;18.50;99.90;;;;;;5095464;28;20389;-70
2022/07/30 02:50:53;;;;;;;10.98;5.80;;;18.50;99.90;;;;;;5094377;28;20384;-73
2022/07/30 02:53:21;;;;;;;6.47;5.80;;;18.40;99.90;;;;;;5095288;28;20048;-73
2022/07/30 02:55:48;;;;;;;7.60;5.95;;;18.50;99.90;;;;;;5095290;28;20088;-74
2022/07/30 02:58:21;;;;;;;11.05;5.93;;;18.40;99.90;;;;;;5095379;28;20072;-73
2022/07/30 03:00:49;;;;;;;7.25;5.93;;;18.40;99.90;;;;;;5095385;28;20025;-74
2022/07/30 03:03:16;;;;;;;6.65;5.85;;;18.40;99.90;;;;;;5095210;28;20031;-71
2022/07/30 03:05:43;;;;;;;9.57;6.57;;;18.40;99.90;;;;;;5095279;28;20016;-71
2022/07/30 03:08:10;;;;;;;7.10;5.85;;;18.40;99.90;;;;;;5094943;28;20028;-72
2022/07/30 03:10:37;;;;;;;6.60;5.95;;;18.40;99.90;;;;;;5093531;28;20024;-71
2022/07/30 03:13:08;;;;;;;6.47;5.82;;;18.40;99.90;;;;;;5095053;28;20095;-73
2022/07/30 03:15:36;;;;;;;7.00;6.07;;;18.40;99.90;;;;;;5095094;28;20035;-71
2022/07/30 03:18:04;;;;;;;7.85;6.55;;;18.40;99.90;;;;;;5094745;28;20059;-70
2022/07/30 03:20:32;;;;;;;7.45;6.28;;;18.30;99.90;;;;;;5093688;28;20030;-71
2022/07/30 03:23:00;;;;;;;7.25;6.47;;;18.30;99.90;;;;;;5094864;28;20069;-71
2022/07/30 03:25:27;;;;;;;11.27;6.53;;;18.20;99.90;;;;;;5094792;28;20020;-73
2022/07/30 03:27:56;;;;;;;8.05;6.40;;;18.20;99.90;;;;;;5093356;28;20020;-73
2022/07/30 03:30:24;;;;;;;7.15;6.43;;;18.20;99.90;;;;;;5093398;28;20389;-74
2022/07/30 03:32:52;;;;;;;8.73;6.68;;;18.20;99.90;;;;;;5093523;28;20024;-70
2022/07/30 03:35:20;;;;;;;7.22;6.53;;;18.20;99.90;;;;;;5094688;28;20043;-73
2022/07/30 03:37:47;;;;;;;7.75;7.00;;;18.20;99.90;;;;;;5094529;28;20020;-70
2022/07/30 03:40:14;;;;;;;9.00;7.03;;;18.20;99.90;;;;;;5093264;28;20024;-70
2022/07/30 03:42:40;;;;;;;8.65;6.60;;;18.20;99.90;;;;;;5094518;28;20024;-73
2022/07/30 03:45:07;;;;;;;7.90;7.05;;;18.10;99.90;;;;;;5093023;28;20028;-74
2022/07/30 03:47:37;;;;;;;8.15;7.07;;;18.00;99.90;;;;;;5093170;28;20115;-74
2022/07/30 03:50:04;;;;;;;8.10;6.93;;;17.90;99.90;;;;;;5094170;28;20107;-73
2022/07/30 03:52:33;;;;;;;14.98;9.52;;;17.90;99.90;;;;;;5092973;28;20052;-71
2022/07/30 03:55:00;;;;;;;11.80;7.82;;;17.80;99.90;;;;;;5094443;28;20028;-71
2022/07/30 03:57:27;;;;;;;8.85;7.88;;;17.80;99.90;;;;;;5094450;28;20020;-71
2022/07/30 03:59:52;;;;;;;9.77;8.50;;;17.80;99.90;;;;;;5094137;28;20052;-71
2022/07/30 04:02:18;;;;;;;9.00;7.63;;;17.80;99.90;;;;;;5094234;28;20105;-70
2022/07/30 04:04:44;;;;;;;10.20;8.55;;;17.80;99.90;;;;;;5092777;28;20126;-73
2022/07/30 04:07:10;;;;;;;9.55;8.50;;;17.70;99.90;;;;;;5092731;28;20542;-73
2022/07/30 04:09:36;;;;;;;9.77;8.38;;;17.70;99.90;;;;;;5093943;28;20023;-70
2022/07/30 04:12:01;;;;;;;10.30;8.02;;;17.70;99.90;;;;;;5093834;28;20099;-70
2022/07/30 04:14:42;;;;;;;11.40;8.48;;;17.60;99.90;;;;;;5093938;28;20027;-73
2022/07/30 04:17:11;;;;;;;10.95;7.60;;;17.60;99.90;;;;;;5092708;28;20102;-74
2022/07/30 04:19:48;;;;;;;12.98;7.75;;;17.60;99.90;;;;;;5093680;28;20447;-74
2022/07/30 04:22:19;;;;;;;10.02;8.52;;;17.60;99.90;;;;;;5093340;28;20031;-70
2022/07/30 04:24:46;;;;;;;9.82;8.80;;;17.60;99.90;;;;;;5093801;28;20032;-73
2022/07/30 04:27:13;;;;;;;9.93;8.48;;;17.60;99.90;;;;;;5093835;28;20016;-70
2022/07/30 04:29:39;;;;;;;10.13;8.20;;;17.60;99.90;;;;;;5093736;28;20023;-73
2022/07/30 04:32:08;;;;;;;11.40;9.10;;;17.60;99.90;;;;;;5092311;28;20458;-73
2022/07/30 04:34:34;;;;;;;10.07;7.40;;;17.70;99.90;;;;;;5092331;28;20396;-73
2022/07/30 04:37:00;;;;;;;13.18;8.75;;;17.70;99.90;;;;;;5093593;28;20020;-70
2022/07/30 04:39:26;;;;;;;9.77;8.60;;;17.70;99.90;;;;;;5093521;28;20054;-72
2022/07/30 04:41:51;;;;;;;10.07;8.38;;;17.70;99.90;;;;;;5093355;28;20035;-71
2022/07/30 04:44:18;;;;;;;11.35;8.57;;;17.70;99.90;;;;;;5092053;28;20049;-74
2022/07/30 04:46:45;;;;;;;10.75;8.60;;;17.70;99.90;;;;;;5093474;28;20115;-73
2022/07/30 04:49:12;;;;;;;10.18;8.32;;;17.70;99.90;;;;;;5093392;28;20460;-71
2022/07/30 04:51:39;;;;;;;10.68;8.75;;;17.70;99.90;;;;;;5093316;28;20028;-71
2022/07/30 04:54:09;;;;;;;12.32;9.05;;;17.80;99.90;;;;;;5093316;28;20028;-74
2022/07/30 04:56:36;;;;;;;10.02;9.00;;;17.70;99.90;;;;;;5093360;28;20358;-71
2022/07/30 04:59:03;;;;;;;10.60;9.05;;;17.80;99.90;;;;;;5093361;28;20024;-71
2022/07/30 05:01:38;;;;;;;11.23;9.50;;;17.80;99.90;;;;;;5093244;28;20027;-74
2022/07/30 05:04:05;;;;;;;12.15;9.15;;;17.80;99.90;;;;;;5093247;28;20087;-73
2022/07/30 05:06:32;;;;;;;11.35;8.88;;;17.90;99.90;;;;;;5093163;28;20024;-71
2022/07/30 05:08:58;;;;;;;11.77;9.15;;;17.80;99.90;;;;;;5093270;28;20145;-74
2022/07/30 05:11:23;;;;;;;9.23;8.23;;;17.80;99.90;;;;;;5091943;28;20482;-72
2022/07/30 05:13:49;;;;;;;11.20;9.35;;;17.80;99.90;;;;;;5093100;28;20229;-74
2022/07/30 05:16:15;;;;;;;9.93;8.93;;;17.80;99.90;;;;;;5091850;28;20027;-74
2022/07/30 05:18:41;;;;;;;10.45;8.15;;;17.80;99.90;;;;;;5091761;28;20028;-74
2022/07/30 05:21:07;;;;;;;12.40;9.75;;;17.90;99.90;;;;;;5092887;28;20500;-74
2022/07/30 05:23:34;;;;;;;10.30;8.98;;;17.90;99.90;;;;;;5091639;28;20042;-70
2022/07/30 05:26:00;;;;;;;17.85;10.35;;;17.90;99.90;;;;;;5092975;28;20024;-70
2022/07/30 05:28:26;;;;;;;10.52;8.95;;;17.90;99.90;;;;;;5093141;28;20028;-73
2022/07/30 05:30:52;;;;;;;13.13;10.35;;;17.90;99.90;;;;;;5091648;28;20022;-74
2022/07/30 05:33:19;;;;;;;10.90;9.57;;;18.00;99.90;;;;;;5094662;28;20059;-74
2022/07/30 05:35:45;;;;;;;10.43;9.32;;;18.10;99.90;;;;;;5096768;28;20027;-74
2022/07/30 05:38:11;;;;;;;11.13;9.05;;;18.10;99.90;;;;;;5096508;28;20036;-74
2022/07/30 05:40:37;;;;;;;10.32;9.20;;;18.20;99.90;;;;;;5096708;28;20067;-74
2022/07/30 05:43:03;;;;;;;12.95;9.65;;;18.30;99.90;;;;;;5096619;28;20485;-70
2022/07/30 05:45:29;;;;;;;11.60;10.32;;;18.30;99.90;;;;;;5096697;28;20099;-74
2022/07/30 05:47:55;;;;;;;10.05;9.10;;;18.40;99.90;;;;;;5095290;28;20024;-74
2022/07/30 05:50:20;;;;;;;12.63;9.75;;;18.50;99.90;;;;;;5096480;28;20028;-74
2022/07/30 05:52:46;;;;;;;10.45;9.00;;;18.50;99.90;;;;;;5089125;28;20055;-74
2022/07/30 05:55:12;;;;;;;12.85;9.40;;;18.50;99.90;;;;;;5074954;28;20116;-70
2022/07/30 05:57:40;;;;;;;12.68;10.40;;;18.50;99.90;;;;;;5074840;28;20478;-74
2022/07/30 06:00:08;;;;;;;13.07;10.45;;;18.50;99.90;;;;;;5076121;28;20111;-74
2022/07/30 06:02:33;;;;;;;11.40;10.05;;;18.50;99.90;;;;;;5076024;28;20025;-70
2022/07/30 06:04:59;;;;;;;12.30;9.95;;;18.60;99.90;;;;;;5082523;28;20043;-73
2022/07/30 06:07:25;;;;;;;12.65;10.25;;;18.60;99.90;;;;;;5095800;28;20081;-71
2022/07/30 06:09:51;;;;;;;10.75;9.68;;;18.70;99.90;;;;;;5095640;28;20077;-70
2022/07/30 06:12:18;;;;;;;14.50;10.48;;;18.70;99.90;;;;;;5095594;28;20024;-71
2022/07/30 06:14:44;;;;;;;12.50;9.40;;;18.80;99.90;;;;;;5095713;28;20503;-74
2022/07/30 06:17:09;;;;;;;8.65;7.75;;;18.90;99.90;;;;;;5094125;28;20032;-73
2022/07/30 06:19:35;;;;;;;9.77;8.63;;;19.00;99.90;;;;;;5092841;28;20016;-71
2022/07/30 06:22:01;;;;;;;11.82;8.25;;;19.10;99.90;;;;;;5094634;28;20435;-71
2022/07/30 06:24:27;;;;;;;10.27;7.88;;;19.20;99.90;;;;;;5095255;28;20633;-73
2022/07/30 06:26:52;;;;;;;11.68;7.35;;;19.40;99.90;;;;;;5095297;28;20111;-70
2022/07/30 06:29:18;;;;;;;8.00;6.80;;;19.50;99.90;;;;;;5092983;28;20073;-71
2022/07/30 06:31:44;;;;;;;8.00;7.20;;;19.50;99.90;;;;;;5095331;28;20553;-70
2022/07/30 06:34:09;;;;;;;8.43;7.63;;;19.70;99.90;;;;;;5093992;28;20028;-72
2022/07/30 06:36:35;;;;;;;10.27;8.50;;;19.80;99.90;;;;;;5093769;28;20024;-71
2022/07/30 06:39:01;;;;;;;8.23;6.78;;;19.90;99.90;;;;;;5095151;28;20017;-71
2022/07/30 06:41:27;;;;;;;6.53;6.03;;;19.90;99.90;;;;;;5095396;28;20074;-73
2022/07/30 06:43:52;;;;;;;8.73;6.57;;;20.00;99.90;;;;;;5092071;28;20032;-69
2022/07/30 06:46:18;;;;;;;9.73;7.03;;;19.90;99.90;;;;;;5094572;28;20012;-71
2022/07/30 06:48:43;;;;;;;7.15;6.45;;;20.00;99.90;;;;;;5092998;28;20039;-70
2022/07/30 06:51:09;;;;;;;7.78;7.07;;;20.00;99.90;;;;;;5094976;28;20028;-74
2022/07/30 06:53:35;;;;;;;9.00;6.47;;;20.10;99.90;;;;;;5093858;28;20055;-70
2022/07/30 06:56:01;;;;;;;7.28;6.03;;;20.10;99.90;;;;;;5094027;28;20028;-74
2022/07/30 06:58:26;;;;;;;7.53;6.53;;;20.10;99.90;;;;;;5095299;28;20028;-74
2022/07/30 07:00:52;;;;;;;9.15;5.75;;;20.10;99.90;;;;;;5095530;28;20378;-74
2022/07/30 07:03:18;;;;;;;7.05;6.00;;;20.10;99.90;;;;;;5095202;28;20032;-71
2022/07/30 07:05:43;;;;;;;18.20;6.55;;;20.10;99.90;;;;;;5095171;28;20016;-72
2022/07/30 07:08:09;;;;;;;13.25;6.20;;;20.20;99.90;;;;;;5094940;28;20024;-74
2022/07/30 07:10:35;;;;;;;7.13;6.13;;;20.20;99.90;;;;;;5095134;28;20027;-74
2022/07/30 07:13:00;;;;;;;6.20;5.55;;;20.20;99.90;;;;;;5094946;28;20036;-74
2022/07/30 07:15:26;;;;;;;7.03;6.00;;;20.20;99.90;;;;;;5094384;28;20026;-74
2022/07/30 07:17:52;;;;;;;7.63;5.85;;;20.30;99.90;;;;;;5094860;28;20074;-74
2022/07/30 07:20:18;;;;;;;6.05;5.47;;;20.30;99.90;;;;;;5094792;28;20020;-74
2022/07/30 07:22:43;;;;;;;6.75;5.78;;;20.30;99.90;;;;;;5094697;28;20024;-74
2022/07/30 07:25:09;;;;;;;6.20;5.65;;;20.40;99.90;;;;;;5094736;28;20039;-74
2022/07/30 07:27:38;;;;;;;7.63;6.60;;;20.30;99.90;;;;;;5094481;28;20077;-74
2022/07/30 07:30:05;;;;;;;6.10;5.53;;;20.30;99.90;;;;;;5094601;28;20028;-74
2022/07/30 07:32:30;;;;;;;8.52;5.95;;;20.30;99.90;;;;;;5094374;28;20039;-74
2022/07/30 07:34:56;;;;;;;6.85;6.22;;;20.30;99.90;;;;;;5093052;28;20497;-74
2022/07/30 07:37:21;;;;;;;9.45;7.20;;;20.30;99.90;;;;;;5093043;28;20176;-74
2022/07/30 07:39:47;;;;;;;7.22;5.53;;;20.20;99.90;;;;;;5094453;28;20024;-71
2022/07/30 07:42:13;;;;;;;7.45;5.72;;;20.20;99.90;;;;;;5093081;28;20052;-74
2022/07/30 07:44:39;;;;;;;7.03;6.43;;;20.20;99.90;;;;;;5094315;28;20489;-74
2022/07/30 07:47:04;;;;;;;9.60;6.22;;;20.20;99.90;;;;;;5092942;28;20117;-75
2022/07/30 07:49:30;;;;;;;9.57;6.22;;;20.20;99.90;;;;;;5094158;28;20026;-74
2022/07/30 07:51:56;;;;;;;6.75;6.15;;;20.20;99.90;;;;;;5092782;28;20059;-74
2022/07/30 07:54:21;;;;;;;8.13;6.15;;;20.30;99.90;;;;;;5092842;28;20103;-74
2022/07/30 07:56:47;;;;;;;6.60;5.60;;;20.30;99.90;;;;;;5094067;28;20111;-74
2022/07/30 07:59:13;;;;;;;7.25;6.40;;;20.40;99.90;;;;;;5086385;28;20021;-75
2022/07/30 08:01:39;;;;;;;5.78;5.15;;;20.40;99.90;;;;;;5072383;28;20081;-74
2022/07/30 08:04:05;;;;;;;7.28;6.57;;;20.50;99.90;;;;;;5089247;28;20036;-75
2022/07/30 08:06:31;;;;;;;7.07;6.43;;;20.50;99.90;;;;;;5072488;28;20436;-75
2022/07/30 08:08:56;;;;;;;8.27;6.63;;;20.50;99.90;;;;;;5073600;28;20040;-75
2022/07/30 08:11:22;;;;;;;6.22;5.72;;;20.60;99.90;;;;;;5073609;28;20021;-74
2022/07/30 08:13:48;;;;;;;8.02;5.75;;;20.70;99.90;;;;;;5073497;28;20028;-75
2022/07/30 08:16:13;;;;;;;6.45;5.82;;;20.70;99.90;;;;;;5093322;28;20024;-75
2022/07/30 08:18:39;;;;;;;6.10;5.57;;;20.90;99.90;;;;;;5111613;28;20030;-74
2022/07/30 08:21:07;;;;;;;6.45;5.53;;;20.90;99.90;;;;;;5088675;28;20019;-74
2022/07/30 08:23:33;;;;;;;6.03;5.50;;;21.10;99.90;;;;;;5091761;28;20504;-75
2022/07/30 08:25:58;;;;;;;6.13;4.97;;;21.30;99.90;;;;;;5093447;28;20021;-74
2022/07/30 08:28:25;;;;;;;6.68;5.25;;;21.40;99.90;;;;;;5086453;28;20508;-74
2022/07/30 08:30:50;;;;;;;5.82;5.32;;;21.60;99.90;;;;;;5091433;28;20041;-76
2022/07/30 08:33:16;;;;;;;5.15;4.55;;;21.60;99.90;;;;;;5090902;28;20111;-76
2022/07/30 08:35:42;;;;;;;5.68;5.18;;;21.80;99.90;;;;;;5091898;28;20032;-75
2022/07/30 08:38:08;;;;;;;5.97;5.40;;;21.90;99.90;;;;;;5093246;28;20020;-74
2022/07/30 08:40:34;;;;;;;6.68;4.85;;;22.00;99.90;;;;;;5093543;28;20097;-74
2022/07/30 08:43:04;;;;;;;5.30;4.80;;;22.30;99.90;;;;;;5093269;28;20073;-74
2022/07/30 08:45:31;;;;;;;4.97;4.57;;;22.40;99.90;;;;;;5093202;28;20074;-74
2022/07/30 08:48:00;;;;;;;5.40;4.90;;;22.40;99.90;;;;;;5093163;28;20474;-74
2022/07/30 08:50:26;;;;;;;5.10;4.70;;;22.50;99.90;;;;;;5093247;28;20024;-76
2022/07/30 08:52:54;;;;;;;5.40;4.47;;;22.60;99.90;;;;;;5093240;28;20116;-76
2022/07/30 08:55:21;;;;;;;4.78;4.38;;;22.70;98.80;;;;;;5091822;28;20031;-71
2022/07/30 08:57:48;;;;;;;5.65;5.13;;;22.80;97.00;;;;;;5092313;28;20028;-71
2022/07/30 09:00:15;;;;;;;4.95;4.55;;;22.90;98.30;;;;;;5091654;28;20107;-75
2022/07/30 09:02:41;;;;;;;4.72;4.32;;;23.10;95.30;;;;;;5091461;28;20430;-76
2022/07/30 09:05:08;;;;;;;4.60;4.15;;;23.20;90.80;;;;;;5091710;28;20046;-72
2022/07/30 09:07:35;;;;;;;5.05;4.40;;;23.50;88.20;;;;;;5089528;28;20016;-71
2022/07/30 09:10:01;;;;;;;4.43;4.03;;;23.80;87.00;;;;;;5088505;28;20024;-71
2022/07/30 09:12:38;;;;;;;5.15;4.63;;;24.00;82.90;;;;;;5078889;28;20029;-75
2022/07/30 09:15:05;;;;;;;5.82;4.30;;;24.00;80.10;;;;;;5077910;28;20058;-76
2022/07/30 09:18:03;;;;;;;4.95;4.05;;;24.10;81.60;;;;;;5092982;28;20035;-71
2022/07/30 09:20:33;;;;;;;4.53;4.13;;;24.10;80.00;;;;;;5070027;28;20381;-72
2022/07/30 09:23:03;;;;;;;6.55;3.90;;;24.10;78.40;;;;;;5092382;28;20020;-75
2022/07/30 09:25:38;;;;;;;4.50;4.10;;;24.30;78.50;;;;;;5086064;28;20039;-75
2022/07/30 09:28:05;;;;;;;4.10;3.70;;;24.50;78.80;;;;;;5074417;28;20031;-75
2022/07/30 09:30:54;;;;;;;4.20;3.80;;;24.60;75.20;;;;;;5080550;28;20101;-75
2022/07/30 09:33:39;;;;;;;4.20;3.90;;;24.70;73.90;;;;;;5091198;28;20028;-75
2022/07/30 09:36:11;;;;;;;4.10;3.80;;;24.60;72.70;;;;;;5078991;28;20020;-75
2022/07/30 09:38:50;;;;;;;4.22;3.83;;;24.70;74.20;;;;;;5091361;28;20119;-76
2022/07/30 09:41:24;;;;;;;5.05;4.30;;;24.80;72.70;;;;;;5091340;28;20023;-75
2022/07/30 09:43:51;;;;;;;4.20;3.80;;;24.90;71.40;;;;;;5090556;28;20062;-75
2022/07/30 09:46:17;;;;;;;4.40;4.05;;;25.00;73.00;;;;;;5092321;28;20089;-75
2022/07/30 09:48:47;;;;;;;4.07;3.78;;;25.30;71.30;;;;;;5092395;28;20103;-75
2022/07/30 09:51:13;;;;;;;4.28;3.88;;;25.40;70.50;;;;;;5091147;28;20016;-73
2022/07/30 09:53:55;;;;;;;3.70;3.40;;;25.70;71.10;;;;;;5091868;28;20486;-72
2022/07/30 09:56:28;;;;;;;4.07;3.67;;;25.90;66.70;;;;;;5090751;28;20410;-75
2022/07/30 09:58:55;;;;;;;5.22;3.85;;;26.00;66.80;;;;;;5089153;28;20020;-75
2022/07/30 10:01:21;;;;;;;5.15;4.35;;;26.20;65.90;;;;;;5091859;28;20044;-75
2022/07/30 10:03:47;;;;;;;4.20;3.90;;;26.30;65.60;;;;;;5091635;28;20405;-75
2022/07/30 10:06:13;;;;;;;3.72;3.42;;;26.60;64.70;;;;;;5090778;28;20020;-72
2022/07/30 10:08:43;;;;;;;6.65;4.30;;;26.70;63.10;;;;;;5078559;28;20040;-75
2022/07/30 10:11:14;;;;;;;4.18;3.80;;;26.70;61.40;;;;;;5090904;28;20031;-76
2022/07/30 10:13:41;;;;;;;3.80;3.50;;;26.80;60.70;;;;;;5090310;28;20028;-76
2022/07/30 10:16:08;;;;;;;3.78;3.47;;;26.80;61.00;;;;;;5092173;28;20481;-75
2022/07/30 10:18:34;;;;;;;5.68;3.70;;;26.80;61.80;;;;;;5090888;28;20051;-72
2022/07/30 10:21:02;;;;;;;3.72;3.42;;;26.70;59.90;;;;;;5094901;28;20024;-75
2022/07/30 10:23:28;;;;;;;4.22;3.92;;;26.70;58.70;;;;;;5094331;28;20381;-73
2022/07/30 10:25:56;;;;;;;4.53;3.38;;;26.70;60.10;;;;;;5095747;28;20027;-75
2022/07/30 10:28:23;;;;;;;5.13;4.10;;;26.70;60.60;;;;;;5095144;28;20039;-73
2022/07/30 10:30:50;;;;;;;4.03;3.72;;;26.60;59.50;;;;;;5095713;28;20412;-77
2022/07/30 10:33:17;;;;;;;3.95;3.65;;;26.70;59.10;;;;;;5095529;28;20409;-71
2022/07/30 10:35:42;;;;;;;4.03;3.72;;;26.80;60.20;;;;;;5095572;28;20024;-75
2022/07/30 10:38:12;;;;;;;4.18;3.50;;;26.90;59.10;;;;;;5095424;28;20055;-75
2022/07/30 10:40:46;;;;;;;4.72;4.22;;;27.00;59.30;;;;;;5095448;28;20044;-75
2022/07/30 10:43:30;;;;;;;4.30;3.90;;;27.00;59.00;;;;;;5093794;28;20020;-71
2022/07/30 10:46:21;;;;;;;3.90;3.63;;;27.00;58.80;;;;;;5094222;28;20035;-71
2022/07/30 10:48:47;;;;;;;5.10;4.25;;;27.20;58.50;;;;;;5093971;28;20028;-71
2022/07/30 10:51:13;;;;;;;4.28;3.97;;;27.10;58.10;;;;;;5094067;28;20389;-72
2022/07/30 10:53:44;;;;;;;3.83;3.58;;;26.90;57.80;;;;;;5095295;28;20048;-76
2022/07/30 10:56:19;;;;;;;4.13;3.83;;;26.90;58.40;;;;;;5094145;28;20028;-72
2022/07/30 10:59:05;;;;;;;4.45;4.07;;;27.00;58.90;;;;;;5094223;28;20453;-72
2022/07/30 11:02:07;;;;;;;5.82;4.13;;;27.10;60.20;;;;;;5091817;28;20107;-72
2022/07/30 11:04:33;;;;;;;5.40;4.90;;;27.20;59.60;;;;;;5071921;28;20478;-72
2022/07/30 11:07:20;;;;;;;4.35;3.95;;;27.10;57.70;;;;;;5093980;28;20333;-72
2022/07/30 11:09:50;;;;;;;4.30;4.00;;;27.30;57.30;;;;;;5092124;28;20031;-72
2022/07/30 11:12:56;;;;;;;4.63;4.25;;;27.50;57.70;;;;;;5092096;28;20103;-72
2022/07/30 11:15:22;;;;;;;4.25;3.85;;;27.80;57.70;;;;;;5079566;28;20442;-72
2022/07/30 11:18:04;;;;;;;4.60;4.20;;;28.00;57.60;;;;;;5094218;28;20509;-72
2022/07/30 11:20:31;;;;;;;4.97;4.57;;;27.80;56.60;;;;;;5092078;28;20055;-75
2022/07/30 11:23:19;;;;;;;5.32;4.70;;;27.50;56.10;;;;;;5093038;28;20020;-73
2022/07/30 11:25:46;;;;;;;4.65;4.20;;;27.30;56.50;;;;;;5094689;28;20024;-71
2022/07/30 11:28:35;;;;;;;4.65;4.30;;;27.00;57.80;;;;;;5093885;28;20017;-71
2022/07/30 11:31:01;;;;;;;4.95;4.00;;;26.70;58.30;;;;;;5094006;28;20111;-72
2022/07/30 11:33:27;;;;;;;5.20;4.78;;;26.50;59.10;;;;;;5094138;28;20020;-71
2022/07/30 11:36:10;;;;;;;4.85;4.45;;;26.40;59.90;;;;;;5094084;28;20381;-71
2022/07/30 11:38:57;;;;;;;4.85;4.45;;;26.40;61.80;;;;;;5094463;28;20012;-71
2022/07/30 11:41:23;;;;;;;5.15;4.65;;;26.40;61.60;;;;;;5094272;28;20107;-72
2022/07/30 11:44:29;;;;;;;4.20;3.90;;;26.30;61.80;;;;;;5093748;28;20028;-71
2022/07/30 11:46:55;;;;;;;5.15;4.65;;;26.20;60.00;;;;;;5093145;28;20032;-71
2022/07/30 11:49:21;;;;;;;4.20;3.90;;;26.20;61.00;;;;;;5092715;28;20558;-72
2022/07/30 11:51:48;;;;;;;6.00;4.90;;;26.20;62.00;;;;;;5093945;28;20055;-72
2022/07/30 11:54:14;;;;;;;5.53;5.07;;;26.20;61.20;;;;;;5093415;28;20027;-72
2022/07/30 11:56:51;;;;;;;5.38;4.97;;;26.20;61.40;;;;;;5093943;28;20028;-71
2022/07/30 11:59:17;;;;;;;5.00;4.50;;;26.10;61.80;;;;;;5080210;28;20027;-72
2022/07/30 12:01:47;;;;;;;5.38;4.93;;;26.00;60.40;;;;;;5093928;28;20032;-71
2022/07/30 12:04:13;;;;;;;4.63;4.22;;;26.00;61.50;;;;;;5093605;28;20031;-71
2022/07/30 12:06:46;;;;;;;5.60;5.10;;;25.90;61.00;;;;;;5093809;28;20366;-71
2022/07/30 12:09:21;;;;;;;4.50;4.10;;;25.80;62.40;;;;;;5079908;28;20350;-72
2022/07/30 12:11:46;;;;;;;4.88;4.47;;;25.60;63.80;;;;;;5093604;28;20020;-71
2022/07/30 12:14:12;;;;;;;5.15;4.65;;;25.50;63.70;;;;;;5092140;28;20024;-73
2022/07/30 12:16:41;;;;;;;4.75;4.28;;;25.60;64.80;;;;;;5092733;28;20035;-71
2022/07/30 12:19:07;;;;;;;4.97;4.55;;;25.60;64.90;;;;;;5092361;28;20085;-72
2022/07/30 12:21:33;;;;;;;5.50;3.95;;;25.50;65.10;;;;;;5092206;28;20574;-77
2022/07/30 12:24:01;;;;;;;4.68;4.28;;;25.50;64.50;;;;;;5092354;28;20040;-72
2022/07/30 12:26:29;;;;;;;4.70;4.30;;;25.40;65.10;;;;;;5093539;28;20434;-77
2022/07/30 12:29:07;;;;;;;4.75;4.35;;;25.30;66.20;;;;;;5092951;28;20103;-73
2022/07/30 12:31:34;;;;;;;5.20;4.70;;;25.20;65.40;;;;;;5092172;28;20028;-73
2022/07/30 12:33:59;;;;;;;6.50;5.22;;;25.20;65.10;;;;;;5093544;28;20028;-74
2022/07/30 12:36:33;;;;;;;5.43;5.03;;;25.30;66.10;;;;;;5091414;28;20384;-76
2022/07/30 12:39:01;;;;;;;5.57;5.13;;;25.20;73.30;;;;;;5089536;28;20381;-77
2022/07/30 12:41:50;;;;;;;9.23;5.90;;;25.00;86.90;;;;;;5092510;28;20534;-77
2022/07/30 12:44:34;;;;;;;8.63;6.88;;;24.80;99.10;;;;;;5093218;28;20024;-76
2022/07/30 12:47:01;;;;;;;9.95;7.00;;;24.50;99.90;;;;;;5091825;28;20102;-77
2022/07/30 12:49:31;;;;;;;16.85;6.95;;;24.10;99.90;;;;;;5093079;28;20020;-76
2022/07/30 12:51:57;;;;;;;7.78;6.32;;;23.70;99.90;;;;;;5090058;28;20054;-75
2022/07/30 12:54:23;;;;;;;8.30;7.60;;;23.50;99.90;;;;;;5083319;28;20020;-77